sensor_id;sensor_type;location;lat;lon;timestamp;pressure;altitude;pressure_sealevel;temperature;humidity
35307;BME280;21420;52.196;21.416;2022-12-07T00:01:29;99502.77;;;1.61;77.12
35307;BME280;21420;52.196;21.416;2022-12-07T00:03:58;99510.36;;;1.59;77.09
35307;BME280;21420;52.196;21.416;2022-12-07T00:06:36;99510.12;;;1.58;77.10
35307;BME280;21420;52.196;21.416;2022-12-07T00:09:05;99513.37;;;1.58;77.09
35307;BME280;21420;52.196;21.416;2022-12-07T00:11:33;99512.05;;;1.55;77.05
35307;BME280;21420;52.196;21.416;2022-12-07T00:14:01;99503.81;;;1.49;77.04
35307;BME280;21420;52.196;21.416;2022-12-07T00:16:29;99501.64;;;1.49;77.05
35307;BME280;21420;52.196;21.416;2022-12-07T00:18:57;99501.40;;;1.48;77.06
35307;BME280;21420;52.196;21.416;2022-12-07T00:21:32;99495.45;;;1.48;77.18
35307;BME280;21420;52.196;21.416;2022-12-07T00:24:00;99495.21;;;1.47;77.18
35307;BME280;21420;52.196;21.416;2022-12-07T00:26:29;99491.16;;;1.47;77.21
35307;BME280;21420;52.196;21.416;2022-12-07T00:29:04;99490.84;;;1.49;77.18
35307;BME280;21420;52.196;21.416;2022-12-07T00:31:35;99493.59;;;1.46;77.17
35307;BME280;21420;52.196;21.416;2022-12-07T00:34:05;99495.45;;;1.48;77.20
35307;BME280;21420;52.196;21.416;2022-12-07T00:36:32;99497.06;;;1.49;77.24
35307;BME280;21420;52.196;21.416;2022-12-07T00:38:59;99488.37;;;1.52;77.26
35307;BME280;21420;52.196;21.416;2022-12-07T00:41:27;99499.06;;;1.57;77.33
35307;BME280;21420;52.196;21.416;2022-12-07T00:43:54;99497.94;;;1.61;77.35
35307;BME280;21420;52.196;21.416;2022-12-07T00:46:22;99499.50;;;1.64;77.36
35307;BME280;21420;52.196;21.416;2022-12-07T00:48:49;99506.72;;;1.66;77.32
35307;BME280;21420;52.196;21.416;2022-12-07T00:51:17;99500.48;;;1.69;77.37
35307;BME280;21420;52.196;21.416;2022-12-07T00:53:45;99497.44;;;1.73;77.39
35307;BME280;21420;52.196;21.416;2022-12-07T00:56:16;99496.86;;;1.76;77.39
35307;BME280;21420;52.196;21.416;2022-12-07T00:58:44;99499.52;;;1.78;77.39
35307;BME280;21420;52.196;21.416;2022-12-07T01:01:15;99493.00;;;1.79;77.33
35307;BME280;21420;52.196;21.416;2022-12-07T01:03:42;99493.00;;;1.79;77.36
35307;BME280;21420;52.196;21.416;2022-12-07T01:06:08;99490.56;;;1.80;77.33
35307;BME280;21420;52.196;21.416;2022-12-07T01:08:34;99485.46;;;1.79;77.27
35307;BME280;21420;52.196;21.416;2022-12-07T01:11:06;99492.77;;;1.78;77.23
35307;BME280;21420;52.196;21.416;2022-12-07T01:13:34;99490.12;;;1.76;77.20
35307;BME280;21420;52.196;21.416;2022-12-07T01:16:04;99488.27;;;1.74;77.21
35307;BME280;21420;52.196;21.416;2022-12-07T01:18:34;99491.20;;;1.75;77.24
35307;BME280;21420;52.196;21.416;2022-12-07T01:21:04;99483.66;;;1.74;77.21
35307;BME280;21420;52.196;21.416;2022-12-07T01:23:38;99487.44;;;1.73;77.19
35307;BME280;21420;52.196;21.416;2022-12-07T01:26:07;99480.50;;;1.70;77.15
35307;BME280;21420;52.196;21.416;2022-12-07T01:28:35;99474.55;;;1.70;77.20
35307;BME280;21420;52.196;21.416;2022-12-07T01:31:07;99471.06;;;1.70;77.18
35307;BME280;21420;52.196;21.416;2022-12-07T01:33:38;99478.84;;;1.71;77.24
35307;BME280;21420;52.196;21.416;2022-12-07T01:38:43;99472.06;;;1.74;77.27
35307;BME280;21420;52.196;21.416;2022-12-07T01:41:10;99471.24;;;1.73;77.23
35307;BME280;21420;52.196;21.416;2022-12-07T01:43:36;99469.36;;;1.74;77.22
35307;BME280;21420;52.196;21.416;2022-12-07T01:46:05;99470.66;;;1.76;77.24
35307;BME280;21420;52.196;21.416;2022-12-07T01:48:34;99465.50;;;1.77;77.27
35307;BME280;21420;52.196;21.416;2022-12-07T01:51:05;99467.06;;;1.81;77.27
35307;BME280;21420;52.196;21.416;2022-12-07T01:53:38;99462.45;;;1.81;77.24
35307;BME280;21420;52.196;21.416;2022-12-07T01:56:08;99467.91;;;1.79;77.19
35307;BME280;21420;52.196;21.416;2022-12-07T01:58:37;99470.34;;;1.78;77.17
35307;BME280;21420;52.196;21.416;2022-12-07T02:01:04;99468.02;;;1.74;77.03
35307;BME280;21420;52.196;21.416;2022-12-07T02:03:33;99463.30;;;1.65;76.90
35307;BME280;21420;52.196;21.416;2022-12-07T02:06:02;99461.66;;;1.67;77.06
35307;BME280;21420;52.196;21.416;2022-12-07T02:08:28;99457.85;;;1.68;77.09
35307;BME280;21420;52.196;21.416;2022-12-07T02:10:55;99455.70;;;1.68;77.11
35307;BME280;21420;52.196;21.416;2022-12-07T02:13:26;99452.95;;;1.70;77.20
35307;BME280;21420;52.196;21.416;2022-12-07T02:16:18;99452.91;;;1.73;77.22
35307;BME280;21420;52.196;21.416;2022-12-07T02:21:45;99452.22;;;1.81;77.35
35307;BME280;21420;52.196;21.416;2022-12-07T02:30:15;99452.61;;;1.88;77.42
35307;BME280;21420;52.196;21.416;2022-12-07T02:38:35;99445.41;;;1.97;77.43
35307;BME280;21420;52.196;21.416;2022-12-07T02:41:09;99445.96;;;1.97;77.38
35307;BME280;21420;52.196;21.416;2022-12-07T02:43:50;99442.70;;;1.97;77.34
35307;BME280;21420;52.196;21.416;2022-12-07T02:46:22;99446.52;;;1.96;77.33
35307;BME280;21420;52.196;21.416;2022-12-07T02:48:52;99441.36;;;1.97;77.38
35307;BME280;21420;52.196;21.416;2022-12-07T02:51:21;99435.66;;;1.99;77.37
35307;BME280;21420;52.196;21.416;2022-12-07T02:53:48;99432.41;;;1.99;77.38
35307;BME280;21420;52.196;21.416;2022-12-07T02:56:38;99429.14;;;2.00;77.35
35307;BME280;21420;52.196;21.416;2022-12-07T03:02:55;99424.97;;;1.94;77.24
35307;BME280;21420;52.196;21.416;2022-12-07T03:05:49;99433.37;;;1.92;77.27
35307;BME280;21420;52.196;21.416;2022-12-07T03:11:24;99428.02;;;1.90;77.31
35307;BME280;21420;52.196;21.416;2022-12-07T03:14:18;99420.45;;;1.89;77.31
35307;BME280;21420;52.196;21.416;2022-12-07T03:17:11;99414.81;;;1.88;77.33
35307;BME280;21420;52.196;21.416;2022-12-07T03:19:46;99424.03;;;1.87;77.33
35307;BME280;21420;52.196;21.416;2022-12-07T03:22:14;99424.50;;;1.89;77.38
35307;BME280;21420;52.196;21.416;2022-12-07T03:24:49;99421.27;;;1.90;77.41
35307;BME280;21420;52.196;21.416;2022-12-07T03:27:20;99423.92;;;1.92;77.40
35307;BME280;21420;52.196;21.416;2022-12-07T03:29:52;99423.06;;;1.94;77.46
35307;BME280;21420;52.196;21.416;2022-12-07T03:32:29;99426.33;;;1.94;77.40
35307;BME280;21420;52.196;21.416;2022-12-07T03:35:01;99422.74;;;1.96;77.43
35307;BME280;21420;52.196;21.416;2022-12-07T03:37:57;99423.80;;;1.97;77.41
35307;BME280;21420;52.196;21.416;2022-12-07T03:43:17;99416.91;;;2.05;77.52
35307;BME280;21420;52.196;21.416;2022-12-07T03:48:36;99411.80;;;2.03;77.43
35307;BME280;21420;52.196;21.416;2022-12-07T03:51:20;99411.45;;;2.07;77.48
35307;BME280;21420;52.196;21.416;2022-12-07T03:56:39;99403.03;;;2.09;77.46
35307;BME280;21420;52.196;21.416;2022-12-07T03:59:06;99411.12;;;2.09;77.44
35307;BME280;21420;52.196;21.416;2022-12-07T04:01:33;99410.95;;;2.05;77.36
35307;BME280;21420;52.196;21.416;2022-12-07T04:03:59;99405.05;;;2.03;77.35
35307;BME280;21420;52.196;21.416;2022-12-07T04:06:25;99406.41;;;2.03;77.37
35307;BME280;21420;52.196;21.416;2022-12-07T04:08:52;99404.55;;;2.01;77.35
35307;BME280;21420;52.196;21.416;2022-12-07T04:11:18;99404.29;;;2.00;77.36
35307;BME280;21420;52.196;21.416;2022-12-07T04:13:44;99403.99;;;2.02;77.39
35307;BME280;21420;52.196;21.416;2022-12-07T04:16:29;99400.73;;;2.02;77.42
35307;BME280;21420;52.196;21.416;2022-12-07T04:18:55;99402.09;;;2.02;77.41
35307;BME280;21420;52.196;21.416;2022-12-07T04:21:21;99409.10;;;2.03;77.43
35307;BME280;21420;52.196;21.416;2022-12-07T04:23:47;99398.53;;;2.04;77.44
35307;BME280;21420;52.196;21.416;2022-12-07T04:26:13;99394.98;;;2.06;77.46
35307;BME280;21420;52.196;21.416;2022-12-07T04:28:39;99395.78;;;2.07;77.45
35307;BME280;21420;52.196;21.416;2022-12-07T04:31:05;99393.08;;;2.07;77.45
35307;BME280;21420;52.196;21.416;2022-12-07T04:33:32;99392.05;;;2.05;77.40
35307;BME280;21420;52.196;21.416;2022-12-07T04:35:59;99390.44;;;2.04;77.42
35307;BME280;21420;52.196;21.416;2022-12-07T04:38:25;99390.44;;;2.04;77.40
35307;BME280;21420;52.196;21.416;2022-12-07T04:40:51;99387.00;;;2.01;77.34
35307;BME280;21420;52.196;21.416;2022-12-07T04:43:17;99384.86;;;2.01;77.37
35307;BME280;21420;52.196;21.416;2022-12-07T04:45:47;99378.69;;;1.98;77.36
35307;BME280;21420;52.196;21.416;2022-12-07T04:48:14;99381.16;;;1.97;77.37
35307;BME280;21420;52.196;21.416;2022-12-07T04:50:40;99384.95;;;1.96;77.33
35307;BME280;21420;52.196;21.416;2022-12-07T04:53:07;99388.02;;;1.92;77.29
35307;BME280;21420;52.196;21.416;2022-12-07T04:55:33;99384.88;;;1.87;77.20
35307;BME280;21420;52.196;21.416;2022-12-07T04:57:59;99382.77;;;1.84;77.25
35307;BME280;21420;52.196;21.416;2022-12-07T05:00:25;99382.27;;;1.82;77.28
35307;BME280;21420;52.196;21.416;2022-12-07T05:02:51;99391.13;;;1.85;77.38
35307;BME280;21420;52.196;21.416;2022-12-07T05:05:17;99381.06;;;1.88;77.47
35307;BME280;21420;52.196;21.416;2022-12-07T05:07:43;99382.65;;;1.89;77.47
35307;BME280;21420;52.196;21.416;2022-12-07T05:10:10;99385.85;;;1.91;77.44
35307;BME280;21420;52.196;21.416;2022-12-07T05:12:36;99379.16;;;1.88;77.37
35307;BME280;21420;52.196;21.416;2022-12-07T05:15:03;99374.11;;;1.84;77.31
35307;BME280;21420;52.196;21.416;2022-12-07T05:17:29;99363.98;;;1.79;77.31
35307;BME280;21420;52.196;21.416;2022-12-07T05:19:55;99376.63;;;1.81;77.32
35307;BME280;21420;52.196;21.416;2022-12-07T05:22:22;99376.08;;;1.81;77.36
35307;BME280;21420;52.196;21.416;2022-12-07T05:24:48;99371.79;;;1.80;77.36
35307;BME280;21420;52.196;21.416;2022-12-07T05:27:14;99365.62;;;1.77;77.29
35307;BME280;21420;52.196;21.416;2022-12-07T05:29:40;99368.14;;;1.74;77.26
35307;BME280;21420;52.196;21.416;2022-12-07T05:32:06;99367.32;;;1.73;77.30
35307;BME280;21420;52.196;21.416;2022-12-07T05:34:32;99369.05;;;1.69;77.24
35307;BME280;21420;52.196;21.416;2022-12-07T05:36:58;99372.83;;;1.68;77.25
35307;BME280;21420;52.196;21.416;2022-12-07T05:39:24;99375.53;;;1.68;77.30
35307;BME280;21420;52.196;21.416;2022-12-07T05:41:50;99364.79;;;1.65;77.29
35307;BME280;21420;52.196;21.416;2022-12-07T05:44:35;99367.84;;;1.61;77.25
35307;BME280;21420;52.196;21.416;2022-12-07T05:47:01;99368.19;;;1.57;77.22
35307;BME280;21420;52.196;21.416;2022-12-07T05:49:27;99371.73;;;1.55;77.24
35307;BME280;21420;52.196;21.416;2022-12-07T05:51:53;99376.09;;;1.54;77.28
35307;BME280;21420;52.196;21.416;2022-12-07T05:54:19;99370.20;;;1.52;77.25
35307;BME280;21420;52.196;21.416;2022-12-07T05:56:45;99379.19;;;1.47;77.20
35307;BME280;21420;52.196;21.416;2022-12-07T05:59:11;99377.05;;;1.47;77.25
35307;BME280;21420;52.196;21.416;2022-12-07T06:01:59;99378.69;;;1.45;77.24
35307;BME280;21420;52.196;21.416;2022-12-07T06:04:29;99370.09;;;1.43;77.31
35307;BME280;21420;52.196;21.416;2022-12-07T06:06:57;99371.67;;;1.44;77.33
35307;BME280;21420;52.196;21.416;2022-12-07T06:09:25;99372.23;;;1.43;77.31
35307;BME280;21420;52.196;21.416;2022-12-07T06:11:52;99373.34;;;1.42;77.33
35307;BME280;21420;52.196;21.416;2022-12-07T06:14:38;99370.70;;;1.40;77.24
35307;BME280;21420;52.196;21.416;2022-12-07T06:17:04;99369.42;;;1.35;77.19
35307;BME280;21420;52.196;21.416;2022-12-07T06:19:31;99376.17;;;1.35;77.23
35307;BME280;21420;52.196;21.416;2022-12-07T06:21:57;99380.59;;;1.31;77.18
35307;BME280;21420;52.196;21.416;2022-12-07T06:24:23;99378.47;;;1.28;77.20
35307;BME280;21420;52.196;21.416;2022-12-07T06:26:50;99375.59;;;1.24;77.15
35307;BME280;21420;52.196;21.416;2022-12-07T06:29:17;99369.18;;;1.20;77.13
35307;BME280;21420;52.196;21.416;2022-12-07T06:31:44;99366.53;;;1.17;77.15
35307;BME280;21420;52.196;21.416;2022-12-07T06:34:12;99374.63;;;1.17;77.17
35307;BME280;21420;52.196;21.416;2022-12-07T06:36:40;99369.25;;;1.15;77.17
35307;BME280;21420;52.196;21.416;2022-12-07T06:39:07;99371.95;;;1.15;77.25
35307;BME280;21420;52.196;21.416;2022-12-07T06:41:36;99375.47;;;1.15;77.33
35307;BME280;21420;52.196;21.416;2022-12-07T06:44:04;99370.60;;;1.15;77.33
35307;BME280;21420;52.196;21.416;2022-12-07T06:46:32;99372.51;;;1.14;77.31
35307;BME280;21420;52.196;21.416;2022-12-07T06:48:58;99372.27;;;1.13;77.37
35307;BME280;21420;52.196;21.416;2022-12-07T06:51:25;99368.78;;;1.13;77.33
35307;BME280;21420;52.196;21.416;2022-12-07T06:53:51;99370.66;;;1.12;77.32
35307;BME280;21420;52.196;21.416;2022-12-07T06:56:19;99366.88;;;1.13;77.34
35307;BME280;21420;52.196;21.416;2022-12-07T06:58:45;99369.86;;;1.12;77.32
35307;BME280;21420;52.196;21.416;2022-12-07T07:01:13;99366.31;;;1.14;77.31
35307;BME280;21420;52.196;21.416;2022-12-07T07:03:41;99372.31;;;1.11;77.29
35307;BME280;21420;52.196;21.416;2022-12-07T07:06:08;99372.84;;;1.10;77.27
35307;BME280;21420;52.196;21.416;2022-12-07T07:08:37;99371.20;;;1.12;77.34
35307;BME280;21420;52.196;21.416;2022-12-07T07:11:04;99373.61;;;1.13;77.38
35307;BME280;21420;52.196;21.416;2022-12-07T07:13:31;99368.45;;;1.14;77.36
35307;BME280;21420;52.196;21.416;2022-12-07T07:15:58;99368.22;;;1.13;77.34
35307;BME280;21420;52.196;21.416;2022-12-07T07:18:24;99366.61;;;1.12;77.32
35307;BME280;21420;52.196;21.416;2022-12-07T07:20:52;99360.42;;;1.12;77.30
35307;BME280;21420;52.196;21.416;2022-12-07T07:23:19;99362.33;;;1.11;77.27
35307;BME280;21420;52.196;21.416;2022-12-07T07:25:46;99364.28;;;1.08;77.26
35307;BME280;21420;52.196;21.416;2022-12-07T07:28:12;99367.45;;;1.10;77.31
35307;BME280;21420;52.196;21.416;2022-12-07T07:30:39;99371.50;;;1.10;77.30
35307;BME280;21420;52.196;21.416;2022-12-07T07:33:05;99368.56;;;1.09;77.28
35307;BME280;21420;52.196;21.416;2022-12-07T07:35:33;99372.05;;;1.10;77.29
35307;BME280;21420;52.196;21.416;2022-12-07T07:38:00;99370.41;;;1.11;77.34
35307;BME280;21420;52.196;21.416;2022-12-07T07:40:27;99371.26;;;1.09;77.29
35307;BME280;21420;52.196;21.416;2022-12-07T07:42:56;99365.58;;;1.11;77.33
35307;BME280;21420;52.196;21.416;2022-12-07T07:45:25;99367.67;;;1.14;77.38
35307;BME280;21420;52.196;21.416;2022-12-07T07:47:52;99371.11;;;1.17;77.38
35307;BME280;21420;52.196;21.416;2022-12-07T07:50:19;99369.25;;;1.15;77.34
35307;BME280;21420;52.196;21.416;2022-12-07T07:52:48;99368.41;;;1.17;77.38
35307;BME280;21420;52.196;21.416;2022-12-07T07:55:15;99374.86;;;1.18;77.34
35307;BME280;21420;52.196;21.416;2022-12-07T07:57:41;99371.93;;;1.17;77.33
35307;BME280;21420;52.196;21.416;2022-12-07T08:00:13;99371.38;;;1.18;77.32
35307;BME280;21420;52.196;21.416;2022-12-07T08:02:41;99370.60;;;1.15;77.23
35307;BME280;21420;52.196;21.416;2022-12-07T08:05:12;99370.92;;;1.13;77.24
35307;BME280;21420;52.196;21.416;2022-12-07T08:07:38;99368.00;;;1.10;77.20
35307;BME280;21420;52.196;21.416;2022-12-07T08:10:06;99366.10;;;1.10;77.26
35307;BME280;21420;52.196;21.416;2022-12-07T08:12:37;99367.45;;;1.10;77.27
35307;BME280;21420;52.196;21.416;2022-12-07T08:15:06;99370.66;;;1.12;77.35
35307;BME280;21420;52.196;21.416;2022-12-07T08:17:33;99372.55;;;1.12;77.29
35307;BME280;21420;52.196;21.416;2022-12-07T08:19:59;99371.50;;;1.10;77.27
35307;BME280;21420;52.196;21.416;2022-12-07T08:22:25;99374.75;;;1.10;77.29
35307;BME280;21420;52.196;21.416;2022-12-07T08:24:51;99377.76;;;1.08;77.28
35307;BME280;21420;52.196;21.416;2022-12-07T08:27:19;99376.66;;;1.09;77.32
35307;BME280;21420;52.196;21.416;2022-12-07T08:29:45;99378.28;;;1.08;77.27
35307;BME280;21420;52.196;21.416;2022-12-07T08:32:12;99379.63;;;1.08;77.30
35307;BME280;21420;52.196;21.416;2022-12-07T08:34:38;99376.41;;;1.08;77.33
35307;BME280;21420;52.196;21.416;2022-12-07T08:37:04;99382.05;;;1.09;77.35
35307;BME280;21420;52.196;21.416;2022-12-07T08:39:30;99379.91;;;1.09;77.31
35307;BME280;21420;52.196;21.416;2022-12-07T08:41:57;99381.25;;;1.09;77.33
35307;BME280;21420;52.196;21.416;2022-12-07T08:44:23;99381.99;;;1.12;77.31
35307;BME280;21420;52.196;21.416;2022-12-07T08:46:53;99382.84;;;1.10;77.27
35307;BME280;21420;52.196;21.416;2022-12-07T08:49:37;99374.52;;;1.09;77.28
35307;BME280;21420;52.196;21.416;2022-12-07T08:52:04;99382.05;;;1.09;77.28
35307;BME280;21420;52.196;21.416;2022-12-07T08:54:33;99378.84;;;1.07;77.27
35307;BME280;21420;52.196;21.416;2022-12-07T08:57:01;99379.11;;;1.08;77.28
35307;BME280;21420;52.196;21.416;2022-12-07T08:59:28;99385.85;;;1.08;77.27
35307;BME280;21420;52.196;21.416;2022-12-07T09:01:55;99377.49;;;1.07;77.27
35307;BME280;21420;52.196;21.416;2022-12-07T09:04:21;99386.38;;;1.08;77.32
35307;BME280;21420;52.196;21.416;2022-12-07T09:06:48;99381.25;;;1.09;77.33
35307;BME280;21420;52.196;21.416;2022-12-07T09:09:15;99379.58;;;1.10;77.35
35307;BME280;21420;52.196;21.416;2022-12-07T09:11:41;99371.20;;;1.12;77.34
35307;BME280;21420;52.196;21.416;2022-12-07T09:14:07;99367.95;;;1.12;77.33
35307;BME280;21420;52.196;21.416;2022-12-07T09:16:34;99362.83;;;1.13;77.33
35307;BME280;21420;52.196;21.416;2022-12-07T09:19:00;99368.41;;;1.17;77.37
35307;BME280;21420;52.196;21.416;2022-12-07T09:21:27;99365.72;;;1.17;77.37
35307;BME280;21420;52.196;21.416;2022-12-07T09:23:54;99365.42;;;1.18;77.37
35307;BME280;21420;52.196;21.416;2022-12-07T09:26:20;99373.47;;;1.21;77.41
35307;BME280;21420;52.196;21.416;2022-12-07T09:28:47;99359.93;;;1.23;77.42
35307;BME280;21420;52.196;21.416;2022-12-07T09:31:13;99362.05;;;1.27;77.46
35307;BME280;21420;52.196;21.416;2022-12-07T09:33:40;99360.37;;;1.28;77.44
35307;BME280;21420;52.196;21.416;2022-12-07T09:36:08;99360.59;;;1.32;77.44
35307;BME280;21420;52.196;21.416;2022-12-07T09:38:35;99355.94;;;1.35;77.47
35307;BME280;21420;52.196;21.416;2022-12-07T09:41:06;99363.13;;;1.39;77.52
35307;BME280;21420;52.196;21.416;2022-12-07T09:43:34;99352.72;;;1.49;77.65
35307;BME280;21420;52.196;21.416;2022-12-07T09:46:02;99356.30;;;1.58;77.71
35307;BME280;21420;52.196;21.416;2022-12-07T09:48:32;99349.16;;;1.65;77.69
35307;BME280;21420;52.196;21.416;2022-12-07T09:51:03;99349.25;;;1.74;77.73
35307;BME280;21420;52.196;21.416;2022-12-07T09:53:39;99343.68;;;1.81;77.78
35307;BME280;21420;52.196;21.416;2022-12-07T09:56:06;99341.86;;;1.91;77.81
35307;BME280;21420;52.196;21.416;2022-12-07T09:58:34;99341.22;;;1.96;77.81
35307;BME280;21420;52.196;21.416;2022-12-07T10:03:48;99342.03;;;2.08;77.75
35307;BME280;21420;52.196;21.416;2022-12-07T10:06:13;99349.16;;;2.15;77.77
35307;BME280;21420;52.196;21.416;2022-12-07T10:08:40;99345.80;;;2.21;77.79
35307;BME280;21420;52.196;21.416;2022-12-07T10:11:08;99341.42;;;2.22;77.69
35307;BME280;21420;52.196;21.416;2022-12-07T10:13:42;99344.63;;;2.24;77.70
35307;BME280;21420;52.196;21.416;2022-12-07T10:24:37;99345.06;;;2.40;77.75
35307;BME280;21420;52.196;21.416;2022-12-07T10:27:30;99340.65;;;2.44;77.76
35307;BME280;21420;52.196;21.416;2022-12-07T10:29:58;99335.67;;;2.49;77.76
35307;BME280;21420;52.196;21.416;2022-12-07T10:32:34;99332.91;;;2.52;77.70
35307;BME280;21420;52.196;21.416;2022-12-07T10:35:23;99337.45;;;2.54;77.69
35307;BME280;21420;52.196;21.416;2022-12-07T10:37:52;99332.24;;;2.57;77.72
35307;BME280;21420;52.196;21.416;2022-12-07T10:40:29;99337.02;;;2.60;77.69
35307;BME280;21420;52.196;21.416;2022-12-07T10:43:06;99333.69;;;2.63;77.68
35307;BME280;21420;52.196;21.416;2022-12-07T10:51:32;99342.48;;;2.69;77.55
35307;BME280;21420;52.196;21.416;2022-12-07T11:00:22;99342.84;;;2.76;77.66
35307;BME280;21420;52.196;21.416;2022-12-07T11:05:54;99348.81;;;2.76;77.50
35307;BME280;21420;52.196;21.416;2022-12-07T11:08:44;99349.61;;;2.76;77.53
35307;BME280;21420;52.196;21.416;2022-12-07T11:11:16;99346.91;;;2.76;77.50
35307;BME280;21420;52.196;21.416;2022-12-07T11:13:58;99337.14;;;2.78;77.48
35307;BME280;21420;52.196;21.416;2022-12-07T11:19:43;99337.51;;;2.74;77.36
35307;BME280;21420;52.196;21.416;2022-12-07T11:22:29;99340.51;;;2.72;77.36
35307;BME280;21420;52.196;21.416;2022-12-07T11:25:18;99345.91;;;2.72;77.38
35307;BME280;21420;52.196;21.416;2022-12-07T11:31:16;99343.34;;;2.67;77.37
35307;BME280;21420;52.196;21.416;2022-12-07T11:36:40;99344.63;;;2.69;77.46
35307;BME280;21420;52.196;21.416;2022-12-07T11:42:09;99334.31;;;2.71;77.45
35307;BME280;21420;52.196;21.416;2022-12-07T11:55:50;99330.98;;;2.63;77.24
35307;BME280;21420;52.196;21.416;2022-12-07T11:58:42;99324.80;;;2.63;77.29
35307;BME280;21420;52.196;21.416;2022-12-07T12:01:39;99339.36;;;2.64;77.34
35307;BME280;21420;52.196;21.416;2022-12-07T12:06:57;99326.77;;;2.60;77.25
35307;BME280;21420;52.196;21.416;2022-12-07T12:09:33;99322.35;;;2.64;77.32
35307;BME280;21420;52.196;21.416;2022-12-07T12:12:35;99326.41;;;2.64;77.30
35307;BME280;21420;52.196;21.416;2022-12-07T12:20:51;99322.77;;;2.68;77.32
35307;BME280;21420;52.196;21.416;2022-12-07T12:23:35;99318.16;;;2.69;77.30
35307;BME280;21420;52.196;21.416;2022-12-07T12:26:21;99315.16;;;2.70;77.35
35307;BME280;21420;52.196;21.416;2022-12-07T12:29:36;99306.72;;;2.72;77.33
35307;BME280;21420;52.196;21.416;2022-12-07T12:31:39;99303.78;;;2.71;77.27
35307;BME280;21420;52.196;21.416;2022-12-07T12:35:19;99301.02;;;2.74;77.32
35307;BME280;21420;52.196;21.416;2022-12-07T12:37:01;99297.08;;;2.80;77.36
35307;BME280;21420;52.196;21.416;2022-12-07T12:39:27;99287.96;;;2.87;77.42
35307;BME280;21420;52.196;21.416;2022-12-07T12:41:56;99299.50;;;2.90;77.38
35307;BME280;21420;52.196;21.416;2022-12-07T12:47:02;99301.76;;;2.97;77.41
35307;BME280;21420;52.196;21.416;2022-12-07T12:49:41;99305.17;;;2.91;77.21
35307;BME280;21420;52.196;21.416;2022-12-07T12:55:12;99303.27;;;2.80;77.08
35307;BME280;21420;52.196;21.416;2022-12-07T12:57:42;99298.53;;;2.75;77.09
35307;BME280;21420;52.196;21.416;2022-12-07T13:00:20;99311.62;;;2.70;77.05
35307;BME280;21420;52.196;21.416;2022-12-07T13:02:50;99301.22;;;2.66;77.03
35307;BME280;21420;52.196;21.416;2022-12-07T13:05:31;99299.74;;;2.60;76.98
35307;BME280;21420;52.196;21.416;2022-12-07T13:08:26;99298.20;;;2.56;77.03
35307;BME280;21420;52.196;21.416;2022-12-07T13:10:45;99299.62;;;2.54;77.09
35307;BME280;21420;52.196;21.416;2022-12-07T13:26:18;99295.44;;;2.36;77.09
35307;BME280;21420;52.196;21.416;2022-12-07T13:39:57;99300.05;;;2.36;77.23
35307;BME280;21420;52.196;21.416;2022-12-07T13:42:34;99299.00;;;2.34;77.22
35307;BME280;21420;52.196;21.416;2022-12-07T13:45:26;99302.26;;;2.34;77.18
35307;BME280;21420;52.196;21.416;2022-12-07T13:48:19;99293.59;;;2.34;77.22
35307;BME280;21420;52.196;21.416;2022-12-07T13:51:04;99292.73;;;2.36;77.27
35307;BME280;21420;52.196;21.416;2022-12-07T13:53:31;99289.80;;;2.35;77.25
35307;BME280;21420;52.196;21.416;2022-12-07T13:55:58;99290.03;;;2.36;77.25
35307;BME280;21420;52.196;21.416;2022-12-07T13:58:29;99293.56;;;2.37;77.25
35307;BME280;21420;52.196;21.416;2022-12-07T14:00:58;99299.69;;;2.40;77.28
35307;BME280;21420;52.196;21.416;2022-12-07T14:03:35;99296.98;;;2.40;77.24
35307;BME280;21420;52.196;21.416;2022-12-07T14:06:25;99299.13;;;2.40;77.24
35307;BME280;21420;52.196;21.416;2022-12-07T14:09:19;99301.83;;;2.40;77.27
35307;BME280;21420;52.196;21.416;2022-12-07T14:11:50;99297.05;;;2.37;77.17
35307;BME280;21420;52.196;21.416;2022-12-07T14:14:24;99293.00;;;2.37;77.21
35307;BME280;21420;52.196;21.416;2022-12-07T14:16:58;99295.20;;;2.35;77.14
35307;BME280;21420;52.196;21.416;2022-12-07T14:19:41;99298.20;;;2.34;77.17
35307;BME280;21420;52.196;21.416;2022-12-07T14:22:27;99293.92;;;2.33;77.16
35307;BME280;21420;52.196;21.416;2022-12-07T14:24:59;99298.27;;;2.31;77.16
35307;BME280;21420;52.196;21.416;2022-12-07T14:27:56;99294.52;;;2.29;77.18
35307;BME280;21420;52.196;21.416;2022-12-07T14:30:27;99301.83;;;2.29;77.16
35307;BME280;21420;52.196;21.416;2022-12-07T14:32:57;99293.00;;;2.26;77.10
35307;BME280;21420;52.196;21.416;2022-12-07T14:35:26;99287.59;;;2.26;77.15
35307;BME280;21420;52.196;21.416;2022-12-07T14:37:53;99293.36;;;2.22;77.06
35307;BME280;21420;52.196;21.416;2022-12-07T14:40:22;99296.12;;;2.19;77.07
35307;BME280;21420;52.196;21.416;2022-12-07T14:43:03;99293.72;;;2.18;77.11
35307;BME280;21420;52.196;21.416;2022-12-07T14:45:41;99300.24;;;2.17;77.13
35307;BME280;21420;52.196;21.416;2022-12-07T14:48:13;99294.64;;;2.13;77.12
35307;BME280;21420;52.196;21.416;2022-12-07T14:50:44;99304.95;;;2.11;77.10
35307;BME280;21420;52.196;21.416;2022-12-07T14:53:16;99308.83;;;2.07;77.07
35307;BME280;21420;52.196;21.416;2022-12-07T14:55:43;99305.92;;;2.04;77.06
35307;BME280;21420;52.196;21.416;2022-12-07T14:58:17;99304.88;;;2.02;77.06
35307;BME280;21420;52.196;21.416;2022-12-07T15:00:44;99301.94;;;2.01;77.07
35307;BME280;21420;52.196;21.416;2022-12-07T15:03:10;99312.53;;;1.98;77.03
35307;BME280;21420;52.196;21.416;2022-12-07T15:05:39;99305.84;;;1.95;77.06
35307;BME280;21420;52.196;21.416;2022-12-07T15:08:12;99301.06;;;1.92;77.05
35307;BME280;21420;52.196;21.416;2022-12-07T15:10:39;99296.75;;;1.91;77.07
35307;BME280;21420;52.196;21.416;2022-12-07T15:13:06;99296.02;;;1.88;77.06
35307;BME280;21420;52.196;21.416;2022-12-07T15:15:52;99300.63;;;1.87;77.10
35307;BME280;21420;52.196;21.416;2022-12-07T15:18:21;99298.52;;;1.84;77.07
35307;BME280;21420;52.196;21.416;2022-12-07T15:20:48;99306.45;;;1.81;77.02